Time;durP1;ratioP1;P1;durP2;ratioP2;P2;SDS_P1;SDS_P2;PMS_P1;PMS_P2;Temp;Humidity;BMP_temperature;BMP_pressure;BME280_temperature;BME280_humidity;BME280_pressure;Samples;Min_cycle;Max_cycle;Signal;HPM_P1;HPM_P2
2023/04/14 00:00:58;;;;;;;1.47;1.43;;;4.70;99.90;;;;;;6211043;23;20166;-84
2023/04/14 00:03:24;;;;;;;1.00;0.93;;;4.70;99.90;;;;;;6209663;23;20192;-85
2023/04/14 00:05:50;;;;;;;1.03;0.60;;;4.70;99.90;;;;;;6236375;23;20217;-84
2023/04/14 00:08:15;;;;;;;1.17;1.13;;;4.70;99.90;;;;;;6211421;23;20236;-85
2023/04/14 00:10:41;;;;;;;0.60;0.60;;;4.70;99.90;;;;;;6211258;23;20193;-84
2023/04/14 00:13:07;;;;;;;0.70;0.70;;;4.60;99.90;;;;;;6213019;23;20184;-85
2023/04/14 00:15:33;;;;;;;0.97;0.50;;;4.60;99.90;;;;;;6211545;23;20193;-83
2023/04/14 00:17:58;;;;;;;0.20;0.20;;;4.70;99.90;;;;;;6212436;23;20232;-83
2023/04/14 00:20:24;;;;;;;0.80;0.80;;;4.70;99.90;;;;;;6210950;23;20732;-85
2023/04/14 00:22:50;;;;;;;2.03;0.87;;;4.80;99.90;;;;;;6212526;23;20212;-84
2023/04/14 00:25:16;;;;;;;0.43;0.43;;;4.90;99.90;;;;;;6210974;23;20200;-83
2023/04/14 00:27:42;;;;;;;1.67;1.00;;;4.90;99.90;;;;;;6211968;23;20150;-82
2023/04/14 00:30:08;;;;;;;0.87;0.87;;;5.00;99.90;;;;;;6210694;23;20212;-83
2023/04/14 00:32:34;;;;;;;10.27;1.03;;;5.10;99.90;;;;;;6236121;23;20206;-83
2023/04/14 00:35:02;;;;;;;2.73;1.37;;;5.10;99.90;;;;;;6236548;23;20268;-84
2023/04/14 00:37:28;;;;;;;1.77;0.93;;;5.10;99.90;;;;;;6212542;23;20165;-83
2023/04/14 00:39:54;;;;;;;1.40;1.20;;;5.20;99.90;;;;;;6213319;23;20158;-82
2023/04/14 00:42:19;;;;;;;0.67;0.67;;;5.20;99.90;;;;;;6185773;23;20741;-85
2023/04/14 00:44:46;;;;;;;7.33;1.17;;;5.20;99.90;;;;;;6236429;23;20287;-84
2023/04/14 00:47:12;;;;;;;1.47;1.37;;;5.30;99.90;;;;;;6210966;23;20243;-83
2023/04/14 00:49:38;;;;;;;11.80;0.60;;;5.40;99.90;;;;;;6186062;23;20226;-83
2023/04/14 00:52:05;;;;;;;6.87;1.10;;;5.50;99.90;;;;;;6212953;23;20178;-83
2023/04/14 00:54:33;;;;;;;0.60;0.60;;;5.40;99.90;;;;;;6235812;23;20193;-85
2023/04/14 00:56:59;;;;;;;5.40;0.70;;;5.40;99.90;;;;;;6188462;23;20194;-84
2023/04/14 00:59:27;;;;;;;3.30;2.40;;;5.40;99.90;;;;;;6205687;23;20634;-83
2023/04/14 01:01:54;;;;;;;0.50;0.47;;;5.30;99.90;;;;;;6160650;23;20658;-83
2023/04/14 01:04:21;;;;;;;1.33;1.30;;;5.30;99.90;;;;;;6158401;23;20162;-82
2023/04/14 01:06:47;;;;;;;1.00;1.00;;;5.20;99.90;;;;;;6211747;23;20481;-83
2023/04/14 01:09:15;;;;;;;0.80;0.80;;;5.10;99.90;;;;;;6210625;23;20214;-83
2023/04/14 01:11:43;;;;;;;0.50;0.50;;;5.00;99.90;;;;;;6212065;23;20205;-83
2023/04/14 01:14:40;;;;;;;5.67;0.73;;;5.00;99.90;;;;;;6212127;23;20201;-85
2023/04/14 01:17:36;;;;;;;5.73;0.50;;;4.90;99.90;;;;;;6236000;23;20193;-84
2023/04/14 01:20:08;;;;;;;1.37;0.93;;;4.80;99.90;;;;;;6212024;23;20561;-84
2023/04/14 01:22:42;;;;;;;0.50;0.50;;;4.70;99.90;;;;;;6211779;23;20780;-85
2023/04/14 01:25:41;;;;;;;0.63;0.63;;;4.70;99.90;;;;;;6211856;23;20139;-83
2023/04/14 01:28:28;;;;;;;1.37;1.27;;;4.70;99.90;;;;;;6181485;23;20183;-84
2023/04/14 01:31:27;;;;;;;1.10;1.00;;;4.70;99.90;;;;;;6205283;23;20182;-82
2023/04/14 01:34:36;;;;;;;1.33;1.23;;;4.70;99.90;;;;;;6169286;23;20326;-83
2023/04/14 01:37:17;;;;;;;1.03;1.03;;;4.60;99.90;;;;;;6160760;23;20191;-83
2023/04/14 01:39:52;;;;;;;4.07;2.23;;;4.40;99.90;;;;;;6205611;23;20194;-85
2023/04/14 01:42:24;;;;;;;1.30;1.30;;;4.40;99.90;;;;;;6180210;23;20189;-83
2023/04/14 01:44:55;;;;;;;0.57;0.40;;;4.40;99.90;;;;;;6181738;23;20197;-84
2023/04/14 01:47:24;;;;;;;0.73;0.70;;;4.40;99.90;;;;;;6181739;23;20190;-85
2023/04/14 01:49:52;;;;;;;2.03;1.40;;;4.10;99.90;;;;;;6180415;23;20210;-83
2023/04/14 01:52:19;;;;;;;0.40;0.40;;;3.70;99.90;;;;;;6180561;23;20192;-84
2023/04/14 01:54:49;;;;;;;0.70;0.70;;;3.50;99.90;;;;;;6156383;23;20150;-82
2023/04/14 01:57:19;;;;;;;0.47;0.47;;;3.60;99.90;;;;;;6181585;23;20186;-83
2023/04/14 01:59:47;;;;;;;1.27;1.27;;;3.70;99.90;;;;;;6181903;23;20194;-85
2023/04/14 02:02:14;;;;;;;0.77;0.77;;;3.80;99.90;;;;;;6180077;23;20665;-84
2023/04/14 02:04:41;;;;;;;0.60;0.60;;;3.90;99.90;;;;;;6156946;23;20190;-85
2023/04/14 02:07:09;;;;;;;2.80;1.30;;;3.90;99.90;;;;;;6156347;23;20178;-84
2023/04/14 02:09:36;;;;;;;8.17;1.00;;;3.90;99.90;;;;;;6180310;23;20178;-83
2023/04/14 02:12:03;;;;;;;0.77;0.77;;;4.00;99.90;;;;;;6204957;23;20694;-86
2023/04/14 02:14:30;;;;;;;0.40;0.40;;;4.00;99.90;;;;;;6193639;23;20277;-85
2023/04/14 02:16:58;;;;;;;1.17;1.17;;;4.10;99.90;;;;;;6181689;23;20501;-83
2023/04/14 02:19:24;;;;;;;0.53;0.53;;;4.10;99.90;;;;;;6180275;23;20210;-83
2023/04/14 02:21:51;;;;;;;0.60;0.60;;;4.20;99.90;;;;;;6205763;23;20246;-82
2023/04/14 02:24:18;;;;;;;0.90;0.90;;;4.20;99.90;;;;;;6181338;23;20190;-85
2023/04/14 02:27:17;;;;;;;1.23;1.13;;;4.20;99.90;;;;;;6181104;23;20765;-85
2023/04/14 02:29:50;;;;;;;0.40;0.40;;;4.20;99.90;;;;;;6173596;23;20668;-84
2023/04/14 02:32:24;;;;;;;0.30;0.30;;;4.20;99.90;;;;;;6181072;23;20206;-82
2023/04/14 02:35:15;;;;;;;0.40;0.40;;;4.20;99.90;;;;;;6180042;23;20190;-83
2023/04/14 02:37:45;;;;;;;3.47;0.60;;;4.20;99.90;;;;;;6178423;23;20281;-83
2023/04/14 02:40:19;;;;;;;3.83;0.83;;;4.10;99.90;;;;;;6180059;23;20205;-83
2023/04/14 02:42:47;;;;;;;2.43;0.73;;;4.10;99.90;;;;;;6180842;23;20579;-82
2023/04/14 02:45:21;;;;;;;0.57;0.57;;;4.10;99.90;;;;;;6176852;23;20213;-82
2023/04/14 02:47:51;;;;;;;1.10;1.10;;;4.00;99.90;;;;;;6178599;23;20205;-82
2023/04/14 02:50:19;;;;;;;0.50;0.50;;;4.00;99.90;;;;;;6176761;23;20201;-83
2023/04/14 02:52:50;;;;;;;4.13;0.97;;;4.00;99.90;;;;;;6178674;23;20209;-83
2023/04/14 02:55:17;;;;;;;1.13;1.03;;;4.10;99.90;;;;;;6176459;23;20143;-83
2023/04/14 02:57:45;;;;;;;2.23;2.10;;;4.20;99.90;;;;;;6177842;23;20243;-82
2023/04/14 03:00:12;;;;;;;0.80;0.80;;;4.20;99.90;;;;;;6178030;23;20194;-81
2023/04/14 03:02:38;;;;;;;0.50;0.50;;;4.20;99.90;;;;;;6201642;23;20209;-82
2023/04/14 03:05:05;;;;;;;0.57;0.57;;;4.10;99.90;;;;;;6178366;23;20641;-82
2023/04/14 03:07:31;;;;;;;1.00;0.97;;;4.10;99.90;;;;;;6176471;23;20187;-82
2023/04/14 03:09:57;;;;;;;0.60;0.60;;;4.10;99.90;;;;;;6178519;23;20229;-83
2023/04/14 03:12:24;;;;;;;1.40;1.27;;;4.00;99.90;;;;;;6176211;23;20203;-82
2023/04/14 03:14:51;;;;;;;0.67;0.67;;;4.00;99.90;;;;;;6167193;23;20187;-82
2023/04/14 03:17:19;;;;;;;0.50;0.50;;;4.00;99.90;;;;;;6192172;23;20235;-82
2023/04/14 03:19:47;;;;;;;0.77;0.77;;;4.00;99.90;;;;;;6207103;23;20410;-82
2023/04/14 03:22:16;;;;;;;0.50;0.50;;;4.10;99.90;;;;;;6206503;23;20154;-83
2023/04/14 03:24:43;;;;;;;1.87;0.77;;;4.10;99.90;;;;;;6232680;23;20153;-83
2023/04/14 03:27:24;;;;;;;0.80;0.67;;;4.10;99.90;;;;;;6207957;23;20324;-82
2023/04/14 03:29:53;;;;;;;1.17;1.17;;;4.10;99.90;;;;;;6207722;23;20206;-83
2023/04/14 03:32:21;;;;;;;1.07;0.90;;;4.20;99.90;;;;;;6231547;23;20206;-84
2023/04/14 03:34:53;;;;;;;1.20;0.77;;;4.20;99.90;;;;;;6183224;23;20200;-83
2023/04/14 03:37:23;;;;;;;0.80;0.80;;;4.20;99.90;;;;;;6210260;23;20151;-83
2023/04/14 03:39:51;;;;;;;0.80;0.80;;;4.20;99.90;;;;;;6234919;23;20185;-83
2023/04/14 03:42:23;;;;;;;0.60;0.60;;;4.20;99.90;;;;;;6210340;23;20201;-81
2023/04/14 03:44:53;;;;;;;0.30;0.30;;;4.20;99.90;;;;;;6209755;23;20428;-81
2023/04/14 03:47:22;;;;;;;0.47;0.47;;;4.20;99.90;;;;;;6233518;23;20247;-81
2023/04/14 03:49:49;;;;;;;3.23;2.10;;;4.20;99.90;;;;;;6210197;23;20259;-82
2023/04/14 03:52:16;;;;;;;1.20;0.87;;;4.20;99.90;;;;;;6233655;23;20185;-81
2023/04/14 03:54:44;;;;;;;1.43;1.10;;;4.20;99.90;;;;;;6208519;23;20158;-81
2023/04/14 03:57:12;;;;;;;0.43;0.43;;;4.10;99.90;;;;;;6208073;23;20256;-80
2023/04/14 03:59:40;;;;;;;0.57;0.57;;;4.00;99.90;;;;;;6208061;23;20762;-81
2023/04/14 04:02:07;;;;;;;0.63;0.63;;;4.00;99.90;;;;;;6233544;23;20193;-81
2023/04/14 04:04:35;;;;;;;0.50;0.50;;;4.00;99.90;;;;;;6233447;23;20194;-80
2023/04/14 04:07:01;;;;;;;1.17;0.70;;;4.00;99.90;;;;;;6209061;23;20187;-81
2023/04/14 04:09:28;;;;;;;0.43;0.43;;;4.00;99.90;;;;;;6233222;23;20333;-82
2023/04/14 04:11:58;;;;;;;13.73;2.10;;;4.00;99.90;;;;;;6233255;23;20202;-81
2023/04/14 04:14:26;;;;;;;2.30;1.63;;;4.00;99.90;;;;;;6208792;23;20201;-81
2023/04/14 04:16:54;;;;;;;3.57;1.80;;;4.00;99.90;;;;;;6233183;23;20259;-81
2023/04/14 04:19:22;;;;;;;1.00;0.70;;;4.00;99.90;;;;;;6209888;23;20298;-80
2023/04/14 04:21:52;;;;;;;0.90;0.90;;;4.00;99.90;;;;;;6210464;23;20450;-81
2023/04/14 04:24:21;;;;;;;0.50;0.50;;;4.10;99.90;;;;;;6209450;23;20190;-81
2023/04/14 04:26:47;;;;;;;0.87;0.73;;;4.10;99.90;;;;;;6209499;23;20201;-82
2023/04/14 04:29:14;;;;;;;3.20;1.03;;;4.10;99.90;;;;;;6209088;23;20202;-82
2023/04/14 04:31:40;;;;;;;1.13;1.13;;;4.10;99.90;;;;;;6209114;23;20281;-81
2023/04/14 04:34:07;;;;;;;0.67;0.67;;;4.10;99.90;;;;;;6208146;23;20162;-82
2023/04/14 04:36:34;;;;;;;0.80;0.80;;;4.00;99.90;;;;;;6208723;23;20496;-82
2023/04/14 04:38:59;;;;;;;1.80;1.70;;;3.90;99.90;;;;;;6208918;23;20193;-81
2023/04/14 04:41:27;;;;;;;0.40;0.40;;;3.90;99.90;;;;;;6207382;23;20232;-81
2023/04/14 04:43:53;;;;;;;0.67;0.67;;;3.90;99.90;;;;;;6208727;22;20212;-82
2023/04/14 04:46:27;;;;;;;1.30;1.27;;;3.90;99.90;;;;;;6232770;23;20158;-81
2023/04/14 04:48:56;;;;;;;0.47;0.47;;;3.90;99.90;;;;;;6233142;23;20142;-82
2023/04/14 04:51:21;;;;;;;0.80;0.80;;;4.00;99.90;;;;;;6232204;23;20198;-83
2023/04/14 04:53:47;;;;;;;1.07;1.07;;;4.00;99.90;;;;;;6209090;23;20214;-81
2023/04/14 04:56:13;;;;;;;0.73;0.73;;;4.10;99.90;;;;;;6232499;23;20721;-81
2023/04/14 04:58:38;;;;;;;4.97;0.70;;;4.10;99.90;;;;;;6207463;23;20648;-82
2023/04/14 05:01:08;;;;;;;1.37;1.27;;;4.20;99.90;;;;;;6208372;23;20154;-82
2023/04/14 05:03:34;;;;;;;0.53;0.53;;;4.20;99.90;;;;;;6232997;23;20181;-82
2023/04/14 05:06:00;;;;;;;1.90;1.80;;;4.20;99.90;;;;;;6209243;22;20256;-82
2023/04/14 05:08:26;;;;;;;1.57;1.47;;;4.30;99.90;;;;;;6232705;23;20205;-81
2023/04/14 05:10:51;;;;;;;4.97;1.13;;;4.40;99.90;;;;;;6207412;23;20190;-81
2023/04/14 05:13:17;;;;;;;4.17;0.93;;;4.50;99.90;;;;;;6207499;23;20581;-81
2023/04/14 05:15:43;;;;;;;1.73;1.63;;;4.50;99.90;;;;;;6209510;23;20208;-81
2023/04/14 05:18:08;;;;;;;0.77;0.77;;;5.00;99.90;;;;;;6207216;23;20630;-80
2023/04/14 05:20:34;;;;;;;0.40;0.40;;;6.00;99.90;;;;;;6207109;23;20194;-82
2023/04/14 05:23:00;;;;;;;0.50;0.50;;;6.60;99.90;;;;;;6182305;23;20549;-82
2023/04/14 05:25:26;;;;;;;0.40;0.40;;;7.10;99.90;;;;;;6207308;23;20281;-82
2023/04/14 05:27:53;;;;;;;1.40;1.30;;;7.60;99.90;;;;;;6207944;23;20166;-82
2023/04/14 05:30:18;;;;;;;1.90;1.37;;;7.90;99.90;;;;;;6203615;23;20575;-83
2023/04/14 05:32:44;;;;;;;2.53;0.80;;;8.00;99.90;;;;;;6207896;23;20206;-81
2023/04/14 05:35:10;;;;;;;1.80;1.43;;;8.20;99.90;;;;;;6206911;23;20209;-82
2023/04/14 05:37:36;;;;;;;0.90;0.90;;;8.80;99.90;;;;;;6232181;23;20264;-82
2023/04/14 05:40:02;;;;;;;0.67;0.67;;;9.40;99.90;;;;;;6207294;23;20174;-82
2023/04/14 05:42:28;;;;;;;2.93;2.33;;;9.90;99.90;;;;;;6231730;23;20279;-81
2023/04/14 05:44:54;;;;;;;5.53;3.73;;;10.50;99.90;;;;;;6206983;23;20194;-82
2023/04/14 05:47:19;;;;;;;1.17;1.17;;;10.60;99.90;;;;;;6181752;23;20637;-82
2023/04/14 05:49:45;;;;;;;0.83;0.83;;;10.60;99.90;;;;;;6208728;23;20277;-81
2023/04/14 05:52:11;;;;;;;4.57;1.20;;;10.70;99.90;;;;;;6207314;22;20598;-83
2023/04/14 05:54:36;;;;;;;5.13;0.87;;;11.00;99.90;;;;;;6209287;23;20238;-82
2023/04/14 05:57:03;;;;;;;1.10;1.07;;;11.60;99.90;;;;;;6207174;23;20189;-82
2023/04/14 05:59:28;;;;;;;1.23;1.13;;;12.80;99.90;;;;;;6207901;23;20267;-82
2023/04/14 06:01:54;;;;;;;0.60;0.60;;;13.20;99.90;;;;;;6232669;23;20645;-83
2023/04/14 06:04:20;;;;;;;2.00;1.57;;;13.40;99.90;;;;;;6232946;23;20158;-82
2023/04/14 06:06:45;;;;;;;1.13;1.10;;;14.20;99.90;;;;;;6233050;23;20455;-83
2023/04/14 06:09:11;;;;;;;0.50;0.40;;;15.40;99.90;;;;;;6207499;23;20190;-83
2023/04/14 06:11:38;;;;;;;4.93;1.23;;;15.00;99.90;;;;;;6181933;23;20197;-83
2023/04/14 06:14:06;;;;;;;7.43;1.83;;;14.20;99.90;;;;;;6206895;23;20224;-84
2023/04/14 06:16:32;;;;;;;1.70;1.57;;;13.60;99.90;;;;;;6207251;23;20182;-84
2023/04/14 06:18:57;;;;;;;1.80;1.00;;;14.10;99.90;;;;;;6209067;23;20241;-84
2023/04/14 06:21:23;;;;;;;1.30;1.20;;;13.50;99.90;;;;;;6208550;23;20680;-84
2023/04/14 06:23:49;;;;;;;1.47;0.93;;;13.10;99.90;;;;;;6207179;23;20213;-85
2023/04/14 06:26:15;;;;;;;3.13;1.23;;;13.10;99.90;;;;;;6206708;23;20194;-83
2023/04/14 06:28:41;;;;;;;4.83;0.93;;;13.10;99.90;;;;;;6209308;23;20194;-84
2023/04/14 06:31:06;;;;;;;2.60;1.37;;;13.10;99.90;;;;;;6210344;23;20193;-85
2023/04/14 06:33:32;;;;;;;1.23;1.13;;;12.60;99.90;;;;;;6207351;23;20190;-82
2023/04/14 06:35:58;;;;;;;1.70;1.60;;;11.60;99.90;;;;;;6208254;23;20514;-84
2023/04/14 06:38:24;;;;;;;1.07;1.07;;;11.40;99.90;;;;;;6232266;23;20659;-83
2023/04/14 06:40:50;;;;;;;8.03;1.30;;;11.20;99.90;;;;;;6207613;23;20193;-84
2023/04/14 06:43:16;;;;;;;3.40;1.27;;;10.70;99.90;;;;;;6207884;23;20716;-83
2023/04/14 06:45:42;;;;;;;1.47;1.37;;;10.10;99.90;;;;;;6234519;23;20180;-83
2023/04/14 06:48:10;;;;;;;2.00;1.30;;;11.00;99.90;;;;;;6210284;23;20606;-85
2023/04/14 06:50:36;;;;;;;0.67;0.67;;;12.70;99.90;;;;;;6209178;23;20189;-85
2023/04/14 06:53:01;;;;;;;0.87;0.87;;;12.90;99.90;;;;;;6208380;23;20204;-87
2023/04/14 06:55:27;;;;;;;1.00;0.90;;;12.20;99.90;;;;;;6210323;23;20236;-85
2023/04/14 06:57:56;;;;;;;1.20;0.90;;;12.60;99.90;;;;;;6209185;23;20177;-86
2023/04/14 07:00:22;;;;;;;1.47;1.10;;;13.50;99.90;;;;;;6208924;23;20248;-86
2023/04/14 07:02:47;;;;;;;1.33;1.03;;;13.20;99.90;;;;;;6210456;22;20727;-85
2023/04/14 07:05:13;;;;;;;3.53;1.40;;;13.20;99.90;;;;;;6208514;23;20640;-85
2023/04/14 07:07:39;;;;;;;8.07;1.47;;;14.50;99.90;;;;;;6211135;23;20235;-85
2023/04/14 07:10:05;;;;;;;5.70;2.40;;;15.30;99.90;;;;;;6211125;23;20240;-85
2023/04/14 07:12:32;;;;;;;1.10;1.10;;;15.10;99.90;;;;;;6235712;23;20206;-84
2023/04/14 07:14:58;;;;;;;6.73;2.07;;;14.90;99.90;;;;;;6235814;23;20337;-85
2023/04/14 07:17:24;;;;;;;1.47;1.23;;;14.80;99.90;;;;;;6194934;23;20737;-84
2023/04/14 07:19:49;;;;;;;2.60;0.83;;;15.10;99.90;;;;;;6179690;23;20199;-85
2023/04/14 07:22:15;;;;;;;11.40;1.60;;;15.40;99.90;;;;;;6179500;23;20170;-86
2023/04/14 07:24:41;;;;;;;0.90;0.90;;;15.20;99.90;;;;;;6180002;23;20412;-85
2023/04/14 07:27:13;;;;;;;2.60;2.23;;;14.40;99.90;;;;;;6174789;23;20198;-86
2023/04/14 07:29:41;;;;;;;9.60;1.67;;;13.80;99.90;;;;;;6180113;23;20237;-85
2023/04/14 07:32:07;;;;;;;5.13;1.13;;;14.50;99.90;;;;;;6191415;23;20255;-85
2023/04/14 07:34:33;;;;;;;1.80;1.10;;;14.30;99.90;;;;;;6234621;23;20248;-85
2023/04/14 07:36:58;;;;;;;1.60;1.50;;;14.00;99.90;;;;;;6211442;23;20726;-85
2023/04/14 07:39:24;;;;;;;3.53;0.90;;;14.00;99.90;;;;;;6210824;23;20201;-86
2023/04/14 07:41:50;;;;;;;4.53;1.27;;;14.30;99.90;;;;;;6208961;23;20193;-86
2023/04/14 07:44:16;;;;;;;1.33;1.23;;;14.90;99.90;;;;;;6184212;23;20194;-85
2023/04/14 07:46:42;;;;;;;2.33;1.13;;;14.30;99.90;;;;;;6234086;23;20273;-86
2023/04/14 07:49:07;;;;;;;2.27;1.50;;;14.40;99.90;;;;;;6209802;23;20154;-86
2023/04/14 07:51:33;;;;;;;1.77;1.13;;;15.30;99.90;;;;;;6210458;23;20206;-86
2023/04/14 07:53:59;;;;;;;1.97;1.27;;;15.10;99.90;;;;;;6209414;23;20277;-85
2023/04/14 07:56:25;;;;;;;1.37;1.27;;;15.00;99.90;;;;;;6235631;23;20512;-86
2023/04/14 07:58:51;;;;;;;1.83;1.13;;;14.70;99.90;;;;;;6211237;23;20631;-85
2023/04/14 08:01:16;;;;;;;2.47;1.77;;;14.90;99.90;;;;;;6210539;23;20218;-85
2023/04/14 08:03:42;;;;;;;1.60;1.50;;;14.80;99.90;;;;;;6210660;23;20181;-85
2023/04/14 08:06:08;;;;;;;2.43;1.70;;;15.20;99.90;;;;;;6185129;23;20198;-85
2023/04/14 08:08:35;;;;;;;2.10;1.20;;;15.30;99.90;;;;;;6209753;23;20189;-84
2023/04/14 08:11:00;;;;;;;5.70;1.57;;;15.70;99.90;;;;;;6211534;22;20190;-84
2023/04/14 08:13:26;;;;;;;1.37;1.20;;;15.20;99.90;;;;;;6184644;23;20165;-86
2023/04/14 08:15:52;;;;;;;1.47;1.17;;;14.90;99.90;;;;;;6210687;23;20161;-84
2023/04/14 08:18:17;;;;;;;5.13;1.40;;;15.10;99.90;;;;;;6234688;23;20311;-85
2023/04/14 08:20:43;;;;;;;2.63;1.20;;;15.40;99.90;;;;;;6210649;23;20182;-86
2023/04/14 08:23:10;;;;;;;4.83;1.57;;;15.60;99.90;;;;;;6209322;23;20194;-86
2023/04/14 08:25:36;;;;;;;6.13;1.83;;;15.60;99.90;;;;;;6234142;23;20240;-85
2023/04/14 08:28:02;;;;;;;3.03;1.77;;;15.90;99.90;;;;;;6184120;23;20161;-86
2023/04/14 08:30:28;;;;;;;3.53;1.30;;;15.30;99.90;;;;;;6230403;23;20206;-85
2023/04/14 08:32:54;;;;;;;4.80;1.30;;;15.50;99.90;;;;;;6209870;23;20283;-86
2023/04/14 08:35:23;;;;;;;4.13;2.00;;;15.80;99.90;;;;;;6183566;23;20189;-86
2023/04/14 08:37:49;;;;;;;5.60;1.57;;;15.30;99.90;;;;;;6208929;23;20512;-85
2023/04/14 08:40:16;;;;;;;2.77;1.87;;;15.50;99.90;;;;;;6234904;23;20154;-85
2023/04/14 08:42:42;;;;;;;3.60;1.23;;;16.20;99.90;;;;;;6235375;23;20236;-86
2023/04/14 08:45:08;;;;;;;1.57;1.03;;;17.20;99.90;;;;;;6234813;23;20567;-85
2023/04/14 08:47:36;;;;;;;2.17;1.63;;;16.90;99.90;;;;;;6209694;23;20278;-86
2023/04/14 08:50:06;;;;;;;1.33;1.23;;;16.70;99.90;;;;;;6210627;23;20185;-85
2023/04/14 08:52:35;;;;;;;1.30;1.20;;;16.40;99.90;;;;;;6234766;23;20209;-85
2023/04/14 08:55:01;;;;;;;3.87;1.50;;;15.50;99.90;;;;;;6211719;23;20161;-86
2023/04/14 08:57:29;;;;;;;3.37;2.30;;;15.60;99.90;;;;;;6234300;23;20197;-85
2023/04/14 08:59:58;;;;;;;4.33;2.20;;;15.70;99.90;;;;;;6210351;23;20190;-86
2023/04/14 09:02:25;;;;;;;1.83;1.43;;;16.00;99.90;;;;;;6210690;23;20220;-86
2023/04/14 09:04:51;;;;;;;1.27;1.17;;;16.00;99.90;;;;;;6210737;23;20193;-84
2023/04/14 09:07:18;;;;;;;3.23;1.33;;;15.70;99.90;;;;;;6209175;23;20158;-85
2023/04/14 09:09:44;;;;;;;2.07;1.60;;;16.30;99.90;;;;;;6235190;23;20154;-85
2023/04/14 09:12:14;;;;;;;4.83;1.37;;;16.80;99.90;;;;;;6209476;23;20679;-84
2023/04/14 09:14:42;;;;;;;3.73;1.20;;;18.10;99.90;;;;;;6210921;23;20609;-85
2023/04/14 09:17:08;;;;;;;4.33;1.57;;;18.60;99.90;;;;;;6234544;23;20194;-85
2023/04/14 09:19:34;;;;;;;1.40;1.17;;;19.00;99.90;;;;;;6234380;23;20650;-86
2023/04/14 09:22:00;;;;;;;4.03;1.67;;;19.40;99.90;;;;;;6209777;23;20165;-86
2023/04/14 09:24:32;;;;;;;3.57;1.30;;;19.30;99.90;;;;;;6208793;23;20619;-86
2023/04/14 09:27:06;;;;;;;6.17;1.10;;;20.30;99.90;;;;;;6209889;23;20189;-86
2023/04/14 09:29:32;;;;;;;1.33;1.10;;;21.20;99.90;;;;;;6234287;23;20504;-85
2023/04/14 09:31:58;;;;;;;4.67;1.17;;;21.50;99.90;;;;;;6208831;23;20712;-85
2023/04/14 09:34:24;;;;;;;1.57;1.37;;;22.00;99.90;;;;;;6210278;23;20232;-85
2023/04/14 09:37:08;;;;;;;4.50;1.60;;;21.80;99.90;;;;;;6234538;23;20154;-86
2023/04/14 09:39:35;;;;;;;1.73;1.53;;;19.60;99.90;;;;;;6209707;23;20295;-85
2023/04/14 09:42:03;;;;;;;3.13;1.20;;;18.90;99.90;;;;;;6208735;23;20224;-86
2023/04/14 09:44:29;;;;;;;3.53;1.87;;;19.00;99.90;;;;;;6210136;23;20688;-86
2023/04/14 09:46:59;;;;;;;1.13;1.03;;;19.90;99.90;;;;;;6233882;23;20190;-85
2023/04/14 09:49:28;;;;;;;2.00;1.30;;;20.30;99.90;;;;;;6210568;23;20185;-85
2023/04/14 09:52:02;;;;;;;2.53;1.27;;;19.50;99.90;;;;;;6234504;23;20240;-84
2023/04/14 09:54:28;;;;;;;4.97;1.60;;;18.80;99.90;;;;;;6210171;23;20237;-85
2023/04/14 09:56:54;;;;;;;1.80;1.17;;;18.30;99.90;;;;;;6208746;23;20185;-85
2023/04/14 09:59:49;;;;;;;3.57;1.40;;;19.00;99.90;;;;;;6210363;23;20217;-86
2023/04/14 10:02:15;;;;;;;4.27;1.63;;;19.80;99.90;;;;;;6176010;23;20260;-86
2023/04/14 10:04:41;;;;;;;3.97;1.60;;;21.10;99.90;;;;;;6178868;23;20208;-86
2023/04/14 10:07:07;;;;;;;4.83;2.13;;;20.90;99.90;;;;;;6179257;23;20478;-86
2023/04/14 10:09:36;;;;;;;6.60;1.63;;;21.30;99.90;;;;;;6179002;23;20194;-86
2023/04/14 10:12:05;;;;;;;3.23;2.17;;;21.00;99.90;;;;;;6179124;23;20203;-86
2023/04/14 10:14:32;;;;;;;7.07;2.47;;;17.80;99.90;;;;;;6180410;23;20220;-86
2023/04/14 10:16:59;;;;;;;9.23;2.80;;;16.40;99.90;;;;;;6178978;23;20186;-86
2023/04/14 10:19:26;;;;;;;4.80;1.97;;;15.50;99.90;;;;;;6180894;23;20155;-86
2023/04/14 10:21:53;;;;;;;4.03;1.97;;;14.90;99.90;;;;;;6204790;23;20225;-86
2023/04/14 10:24:20;;;;;;;4.40;2.27;;;14.90;99.90;;;;;;6179545;23;20276;-86
2023/04/14 10:26:48;;;;;;;5.23;1.80;;;16.10;99.90;;;;;;6169612;23;20215;-86
2023/04/14 10:29:15;;;;;;;2.30;1.77;;;17.00;99.90;;;;;;6189234;23;20511;-85
2023/04/14 10:31:48;;;;;;;1.47;1.23;;;16.10;99.90;;;;;;6234618;23;20198;-85
2023/04/14 10:34:15;;;;;;;5.10;2.17;;;16.50;99.90;;;;;;6210925;23;20142;-84
2023/04/14 10:36:42;;;;;;;5.03;2.63;;;16.30;99.90;;;;;;6210754;23;20577;-86
2023/04/14 10:39:10;;;;;;;3.23;1.50;;;15.80;99.90;;;;;;6208564;23;20186;-85
2023/04/14 10:41:51;;;;;;;2.47;1.20;;;15.20;99.90;;;;;;6233427;23;20354;-85
2023/04/14 10:44:31;;;;;;;2.23;0.97;;;14.30;99.90;;;;;;6234020;23;20200;-85
2023/04/14 10:46:59;;;;;;;1.70;0.70;;;14.30;99.90;;;;;;6233637;23;20197;-86
2023/04/14 10:49:32;;;;;;;1.07;0.90;;;15.80;99.90;;;;;;6208569;23;20225;-85
2023/04/14 10:52:03;;;;;;;0.23;0.23;;;16.40;99.90;;;;;;6210750;23;20173;-85
2023/04/14 10:54:53;;;;;;;4.43;0.93;;;16.50;99.90;;;;;;6209933;23;20213;-86
2023/04/14 10:57:23;;;;;;;0.50;0.50;;;15.70;99.90;;;;;;6234223;23;20193;-84
2023/04/14 10:59:53;;;;;;;2.10;0.87;;;15.20;99.90;;;;;;6210477;23;20190;-85
2023/04/14 11:02:33;;;;;;;1.47;1.17;;;14.70;99.90;;;;;;6210178;23;20632;-85
2023/04/14 11:05:05;;;;;;;1.13;0.80;;;14.90;99.90;;;;;;6233860;23;20189;-85
2023/04/14 11:07:36;;;;;;;0.63;0.50;;;14.30;99.90;;;;;;6210079;23;20185;-86
2023/04/14 11:10:21;;;;;;;1.20;0.93;;;14.60;99.90;;;;;;6210662;23;20229;-86
2023/04/14 11:13:16;;;;;;;5.70;0.90;;;15.10;99.90;;;;;;6233889;23;20198;-86
2023/04/14 11:15:50;;;;;;;2.23;1.00;;;15.10;99.90;;;;;;6196768;23;20182;-86
2023/04/14 11:18:28;;;;;;;2.50;0.80;;;15.10;99.90;;;;;;6182367;23;20194;-86
2023/04/14 11:21:00;;;;;;;1.10;1.00;;;15.20;99.90;;;;;;6179960;23;20194;-85
2023/04/14 11:23:27;;;;;;;0.93;0.80;;;15.20;99.90;;;;;;6203440;23;20194;-86
2023/04/14 11:25:53;;;;;;;0.50;0.50;;;15.30;99.90;;;;;;6177992;23;20217;-86
2023/04/14 11:28:31;;;;;;;4.50;1.13;;;15.50;99.90;;;;;;6178406;23;20155;-85
2023/04/14 11:30:58;;;;;;;1.00;0.90;;;15.70;99.90;;;;;;6172725;23;20686;-86
2023/04/14 11:33:32;;;;;;;1.00;1.00;;;15.80;99.90;;;;;;6177557;23;20202;-86
2023/04/14 11:36:00;;;;;;;4.93;1.00;;;14.90;99.90;;;;;;6170016;23;20286;-86
2023/04/14 11:38:26;;;;;;;3.93;0.97;;;14.00;99.90;;;;;;6196340;23;20209;-86
2023/04/14 11:40:53;;;;;;;3.40;1.00;;;14.20;99.90;;;;;;6233955;23;20194;-86
2023/04/14 11:43:20;;;;;;;2.33;0.87;;;14.20;99.90;;;;;;6233933;23;20268;-86
2023/04/14 11:45:46;;;;;;;0.63;0.63;;;14.60;99.90;;;;;;6234394;23;20151;-85
2023/04/14 11:48:18;;;;;;;3.80;1.13;;;14.70;99.90;;;;;;6208261;23;20263;-84
2023/04/14 11:50:46;;;;;;;0.80;0.80;;;15.10;99.90;;;;;;6207157;23;20190;-86
2023/04/14 11:53:16;;;;;;;0.97;0.63;;;14.70;99.90;;;;;;6232421;23;20261;-85
2023/04/14 11:55:47;;;;;;;2.93;1.03;;;15.00;99.90;;;;;;6234326;23;20213;-85
2023/04/14 11:58:19;;;;;;;2.13;0.97;;;15.00;99.90;;;;;;6235451;23;20145;-85
2023/04/14 12:00:47;;;;;;;1.33;0.73;;;14.60;99.90;;;;;;6236439;23;20162;-85
2023/04/14 12:03:13;;;;;;;6.10;1.10;;;14.70;99.90;;;;;;6211822;23;20193;-85
2023/04/14 12:05:39;;;;;;;3.90;1.47;;;15.00;99.90;;;;;;6211577;23;20190;-85
2023/04/14 12:08:07;;;;;;;0.87;0.73;;;15.10;99.90;;;;;;6210249;23;20190;-85
2023/04/14 12:10:34;;;;;;;1.13;1.03;;;15.00;99.90;;;;;;6210434;23;20193;-85
2023/04/14 12:13:04;;;;;;;2.47;0.70;;;14.90;99.90;;;;;;6211701;23;20232;-86
2023/04/14 12:15:31;;;;;;;0.97;0.90;;;15.10;99.90;;;;;;6211609;23;20193;-86
2023/04/14 12:17:58;;;;;;;1.80;0.97;;;15.10;99.90;;;;;;6236074;23;20186;-87
2023/04/14 12:20:29;;;;;;;0.70;0.70;;;14.60;99.90;;;;;;6212529;22;20511;-86
2023/04/14 12:23:02;;;;;;;0.77;0.77;;;14.90;99.90;;;;;;6211792;23;20648;-85
2023/04/14 12:25:32;;;;;;;1.10;0.83;;;15.10;99.90;;;;;;6211731;23;20180;-85
2023/04/14 12:27:58;;;;;;;5.93;1.33;;;15.20;99.90;;;;;;6210306;23;20154;-85
2023/04/14 12:30:25;;;;;;;0.70;0.50;;;14.80;99.90;;;;;;6234956;23;20216;-85
2023/04/14 12:32:51;;;;;;;2.00;0.77;;;15.00;99.90;;;;;;6235339;23;20217;-86
2023/04/14 12:35:22;;;;;;;2.27;0.90;;;14.80;99.90;;;;;;6171283;23;20195;-86
2023/04/14 12:37:49;;;;;;;0.87;0.40;;;14.30;99.90;;;;;;6204899;23;20190;-84
2023/04/14 12:40:16;;;;;;;2.00;0.80;;;14.30;99.90;;;;;;6205164;23;20178;-85
2023/04/14 12:42:52;;;;;;;2.87;1.20;;;14.20;99.90;;;;;;6181890;23;20154;-85
2023/04/14 12:45:18;;;;;;;2.53;1.37;;;14.00;99.90;;;;;;6181531;23;20186;-84
2023/04/14 12:47:55;;;;;;;0.60;0.60;;;13.90;99.90;;;;;;6180887;22;20575;-86
2023/04/14 12:50:27;;;;;;;2.87;0.70;;;13.80;99.90;;;;;;6204871;23;20185;-84
2023/04/14 12:52:54;;;;;;;1.17;1.03;;;14.00;99.90;;;;;;6181477;23;20202;-89
2023/04/14 12:55:26;;;;;;;1.23;0.93;;;14.40;99.90;;;;;;6206250;23;20582;-93
2023/04/14 12:57:58;;;;;;;0.60;0.53;;;15.00;99.90;;;;;;6182219;23;20229;-89